sensor_id;sensor_type;location;lat;lon;timestamp;P1;durP1;ratioP1;P2;durP2;ratioP2
28910;SDS011;16028;42.642;23.310;2022-12-18T00:00:42;7.15;;;4.00;;
28910;SDS011;16028;42.642;23.310;2022-12-18T00:03:10;6.25;;;4.97;;
28910;SDS011;16028;42.642;23.310;2022-12-18T00:05:45;7.10;;;5.03;;
28910;SDS011;16028;42.642;23.310;2022-12-18T00:08:12;6.72;;;5.13;;
28910;SDS011;16028;42.642;23.310;2022-12-18T00:10:39;6.90;;;5.38;;
28910;SDS011;16028;42.642;23.310;2022-12-18T00:13:06;7.90;;;5.68;;
28910;SDS011;16028;42.642;23.310;2022-12-18T00:15:33;7.47;;;5.75;;
28910;SDS011;16028;42.642;23.310;2022-12-18T00:18:00;8.05;;;5.68;;
28910;SDS011;16028;42.642;23.310;2022-12-18T00:20:27;8.32;;;6.38;;
28910;SDS011;16028;42.642;23.310;2022-12-18T00:22:55;8.23;;;6.13;;
28910;SDS011;16028;42.642;23.310;2022-12-18T00:25:22;8.27;;;6.53;;
28910;SDS011;16028;42.642;23.310;2022-12-18T00:27:49;9.40;;;6.18;;
28910;SDS011;16028;42.642;23.310;2022-12-18T00:30:16;10.25;;;7.20;;
28910;SDS011;16028;42.642;23.310;2022-12-18T00:32:42;9.13;;;6.93;;
28910;SDS011;16028;42.642;23.310;2022-12-18T00:35:09;9.73;;;6.93;;
28910;SDS011;16028;42.642;23.310;2022-12-18T00:37:36;10.75;;;6.88;;
28910;SDS011;16028;42.642;23.310;2022-12-18T00:40:04;10.63;;;6.97;;
28910;SDS011;16028;42.642;23.310;2022-12-18T00:42:32;10.55;;;6.93;;
28910;SDS011;16028;42.642;23.310;2022-12-18T00:45:16;10.07;;;6.72;;
28910;SDS011;16028;42.642;23.310;2022-12-18T00:47:43;10.95;;;6.90;;
28910;SDS011;16028;42.642;23.310;2022-12-18T00:50:10;9.80;;;6.70;;
28910;SDS011;16028;42.642;23.310;2022-12-18T00:52:37;10.40;;;7.00;;
28910;SDS011;16028;42.642;23.310;2022-12-18T00:55:05;9.35;;;6.20;;
28910;SDS011;16028;42.642;23.310;2022-12-18T00:57:33;11.45;;;6.38;;
28910;SDS011;16028;42.642;23.310;2022-12-18T00:59:59;8.25;;;6.22;;
28910;SDS011;16028;42.642;23.310;2022-12-18T01:02:26;8.90;;;6.70;;
28910;SDS011;16028;42.642;23.310;2022-12-18T01:04:53;8.85;;;6.43;;
28910;SDS011;16028;42.642;23.310;2022-12-18T01:07:20;8.90;;;6.68;;
28910;SDS011;16028;42.642;23.310;2022-12-18T01:09:46;8.63;;;6.47;;
28910;SDS011;16028;42.642;23.310;2022-12-18T01:12:14;8.75;;;5.72;;
28910;SDS011;16028;42.642;23.310;2022-12-18T01:14:41;8.75;;;6.15;;
28910;SDS011;16028;42.642;23.310;2022-12-18T01:17:08;9.45;;;7.13;;
28910;SDS011;16028;42.642;23.310;2022-12-18T01:19:35;8.57;;;6.43;;
28910;SDS011;16028;42.642;23.310;2022-12-18T01:22:01;9.13;;;6.40;;
28910;SDS011;16028;42.642;23.310;2022-12-18T01:24:28;8.75;;;6.22;;
28910;SDS011;16028;42.642;23.310;2022-12-18T01:26:55;8.77;;;6.07;;
28910;SDS011;16028;42.642;23.310;2022-12-18T01:29:23;9.85;;;7.20;;
28910;SDS011;16028;42.642;23.310;2022-12-18T01:31:50;10.02;;;7.03;;
28910;SDS011;16028;42.642;23.310;2022-12-18T01:34:17;12.57;;;7.65;;
28910;SDS011;16028;42.642;23.310;2022-12-18T01:36:44;11.35;;;7.75;;
28910;SDS011;16028;42.642;23.310;2022-12-18T01:39:11;13.57;;;8.25;;
28910;SDS011;16028;42.642;23.310;2022-12-18T01:41:40;11.30;;;7.95;;
28910;SDS011;16028;42.642;23.310;2022-12-18T01:47:23;11.13;;;7.88;;
28910;SDS011;16028;42.642;23.310;2022-12-18T01:49:52;11.18;;;8.23;;
28910;SDS011;16028;42.642;23.310;2022-12-18T01:52:20;12.02;;;8.30;;
28910;SDS011;16028;42.642;23.310;2022-12-18T01:54:48;18.15;;;9.40;;
28910;SDS011;16028;42.642;23.310;2022-12-18T01:57:16;13.65;;;9.45;;
28910;SDS011;16028;42.642;23.310;2022-12-18T01:59:44;11.82;;;8.45;;
28910;SDS011;16028;42.642;23.310;2022-12-18T02:02:15;12.73;;;9.25;;
28910;SDS011;16028;42.642;23.310;2022-12-18T02:04:42;16.63;;;9.95;;
28910;SDS011;16028;42.642;23.310;2022-12-18T02:07:11;16.55;;;10.35;;
28910;SDS011;16028;42.642;23.310;2022-12-18T02:09:47;16.10;;;10.65;;
28910;SDS011;16028;42.642;23.310;2022-12-18T02:12:17;14.05;;;9.48;;
28910;SDS011;16028;42.642;23.310;2022-12-18T02:14:49;12.25;;;8.57;;
28910;SDS011;16028;42.642;23.310;2022-12-18T02:17:27;14.55;;;9.68;;
28910;SDS011;16028;42.642;23.310;2022-12-18T02:20:04;12.07;;;8.70;;
28910;SDS011;16028;42.642;23.310;2022-12-18T02:22:42;12.15;;;8.57;;
28910;SDS011;16028;42.642;23.310;2022-12-18T02:25:20;14.95;;;8.70;;
28910;SDS011;16028;42.642;23.310;2022-12-18T02:28:00;12.75;;;8.52;;
28910;SDS011;16028;42.642;23.310;2022-12-18T02:30:30;12.40;;;8.82;;
28910;SDS011;16028;42.642;23.310;2022-12-18T02:32:59;12.48;;;8.55;;
28910;SDS011;16028;42.642;23.310;2022-12-18T02:35:30;14.60;;;8.73;;
28910;SDS011;16028;42.642;23.310;2022-12-18T02:37:58;13.32;;;9.02;;
28910;SDS011;16028;42.642;23.310;2022-12-18T02:40:26;11.52;;;8.05;;
28910;SDS011;16028;42.642;23.310;2022-12-18T02:42:54;13.93;;;8.90;;
28910;SDS011;16028;42.642;23.310;2022-12-18T02:45:22;12.25;;;8.63;;
28910;SDS011;16028;42.642;23.310;2022-12-18T02:47:49;12.68;;;8.68;;
28910;SDS011;16028;42.642;23.310;2022-12-18T02:50:18;11.85;;;8.73;;
28910;SDS011;16028;42.642;23.310;2022-12-18T02:52:56;12.63;;;8.65;;
28910;SDS011;16028;42.642;23.310;2022-12-18T02:55:33;12.20;;;9.23;;
28910;SDS011;16028;42.642;23.310;2022-12-18T02:58:10;13.00;;;9.25;;
28910;SDS011;16028;42.642;23.310;2022-12-18T03:00:46;13.90;;;8.93;;
28910;SDS011;16028;42.642;23.310;2022-12-18T03:05:49;11.70;;;7.40;;
28910;SDS011;16028;42.642;23.310;2022-12-18T03:08:19;11.65;;;8.57;;
28910;SDS011;16028;42.642;23.310;2022-12-18T03:10:51;12.00;;;8.55;;
28910;SDS011;16028;42.642;23.310;2022-12-18T03:13:23;13.52;;;7.15;;
28910;SDS011;16028;42.642;23.310;2022-12-18T03:15:55;11.60;;;7.78;;
28910;SDS011;16028;42.642;23.310;2022-12-18T03:18:24;11.98;;;7.90;;
28910;SDS011;16028;42.642;23.310;2022-12-18T03:20:53;10.90;;;7.70;;
28910;SDS011;16028;42.642;23.310;2022-12-18T03:23:24;10.65;;;7.47;;
28910;SDS011;16028;42.642;23.310;2022-12-18T03:25:56;11.55;;;7.10;;
28910;SDS011;16028;42.642;23.310;2022-12-18T03:28:25;10.73;;;5.82;;
28910;SDS011;16028;42.642;23.310;2022-12-18T03:30:57;11.00;;;5.38;;
28910;SDS011;16028;42.642;23.310;2022-12-18T03:33:27;8.38;;;6.22;;
28910;SDS011;16028;42.642;23.310;2022-12-18T03:35:57;9.05;;;5.45;;
28910;SDS011;16028;42.642;23.310;2022-12-18T03:38:24;6.15;;;4.70;;
28910;SDS011;16028;42.642;23.310;2022-12-18T03:40:53;8.13;;;5.32;;
28910;SDS011;16028;42.642;23.310;2022-12-18T03:43:29;7.57;;;5.50;;
28910;SDS011;16028;42.642;23.310;2022-12-18T03:46:06;8.70;;;5.00;;
28910;SDS011;16028;42.642;23.310;2022-12-18T03:48:38;8.52;;;5.30;;
28910;SDS011;16028;42.642;23.310;2022-12-18T03:51:10;6.82;;;5.25;;
28910;SDS011;16028;42.642;23.310;2022-12-18T03:53:42;10.75;;;5.75;;
28910;SDS011;16028;42.642;23.310;2022-12-18T03:56:14;9.43;;;5.45;;
28910;SDS011;16028;42.642;23.310;2022-12-18T03:58:42;11.15;;;5.80;;
28910;SDS011;16028;42.642;23.310;2022-12-18T04:01:13;8.27;;;5.63;;
28910;SDS011;16028;42.642;23.310;2022-12-18T04:03:42;7.22;;;5.32;;
28910;SDS011;16028;42.642;23.310;2022-12-18T04:06:12;6.70;;;5.20;;
28910;SDS011;16028;42.642;23.310;2022-12-18T04:08:40;7.05;;;5.15;;
28910;SDS011;16028;42.642;23.310;2022-12-18T04:11:07;7.72;;;5.20;;
28910;SDS011;16028;42.642;23.310;2022-12-18T04:13:37;8.38;;;5.60;;
28910;SDS011;16028;42.642;23.310;2022-12-18T04:16:05;8.82;;;5.57;;
28910;SDS011;16028;42.642;23.310;2022-12-18T04:18:33;8.23;;;5.65;;
28910;SDS011;16028;42.642;23.310;2022-12-18T04:21:00;7.78;;;4.90;;
28910;SDS011;16028;42.642;23.310;2022-12-18T04:23:27;7.35;;;5.03;;
28910;SDS011;16028;42.642;23.310;2022-12-18T04:25:54;10.40;;;5.85;;
28910;SDS011;16028;42.642;23.310;2022-12-18T04:28:21;7.95;;;5.43;;
28910;SDS011;16028;42.642;23.310;2022-12-18T04:30:48;8.43;;;5.55;;
28910;SDS011;16028;42.642;23.310;2022-12-18T04:33:15;8.43;;;4.97;;
28910;SDS011;16028;42.642;23.310;2022-12-18T04:35:43;8.98;;;5.32;;
28910;SDS011;16028;42.642;23.310;2022-12-18T04:38:10;9.27;;;5.80;;
28910;SDS011;16028;42.642;23.310;2022-12-18T04:40:37;8.65;;;5.47;;
28910;SDS011;16028;42.642;23.310;2022-12-18T04:43:04;10.18;;;5.40;;
28910;SDS011;16028;42.642;23.310;2022-12-18T04:45:31;8.50;;;4.95;;
28910;SDS011;16028;42.642;23.310;2022-12-18T04:47:58;11.13;;;5.82;;
28910;SDS011;16028;42.642;23.310;2022-12-18T04:50:25;11.48;;;6.82;;
28910;SDS011;16028;42.642;23.310;2022-12-18T04:52:54;9.77;;;6.88;;
28910;SDS011;16028;42.642;23.310;2022-12-18T04:55:21;13.25;;;7.55;;
28910;SDS011;16028;42.642;23.310;2022-12-18T04:57:47;11.30;;;7.45;;
28910;SDS011;16028;42.642;23.310;2022-12-18T05:00:14;10.60;;;7.10;;
28910;SDS011;16028;42.642;23.310;2022-12-18T05:02:41;9.32;;;5.70;;
28910;SDS011;16028;42.642;23.310;2022-12-18T05:05:08;8.88;;;5.45;;
28910;SDS011;16028;42.642;23.310;2022-12-18T05:07:35;9.23;;;6.45;;
28910;SDS011;16028;42.642;23.310;2022-12-18T05:10:08;9.40;;;6.40;;
28910;SDS011;16028;42.642;23.310;2022-12-18T05:12:35;15.63;;;7.03;;
28910;SDS011;16028;42.642;23.310;2022-12-18T05:15:22;14.63;;;7.57;;
28910;SDS011;16028;42.642;23.310;2022-12-18T05:17:50;10.82;;;7.00;;
28910;SDS011;16028;42.642;23.310;2022-12-18T05:20:17;15.43;;;7.55;;
28910;SDS011;16028;42.642;23.310;2022-12-18T05:22:44;11.20;;;6.30;;
28910;SDS011;16028;42.642;23.310;2022-12-18T05:25:12;10.55;;;6.90;;
28910;SDS011;16028;42.642;23.310;2022-12-18T05:27:38;10.40;;;6.68;;
28910;SDS011;16028;42.642;23.310;2022-12-18T05:30:06;11.07;;;7.43;;
28910;SDS011;16028;42.642;23.310;2022-12-18T05:32:33;13.27;;;7.97;;
28910;SDS011;16028;42.642;23.310;2022-12-18T05:35:00;16.30;;;9.80;;
28910;SDS011;16028;42.642;23.310;2022-12-18T05:37:27;17.23;;;9.85;;
28910;SDS011;16028;42.642;23.310;2022-12-18T05:39:53;18.10;;;9.65;;
28910;SDS011;16028;42.642;23.310;2022-12-18T05:42:22;13.35;;;7.65;;
28910;SDS011;16028;42.642;23.310;2022-12-18T05:44:48;13.15;;;7.57;;
28910;SDS011;16028;42.642;23.310;2022-12-18T05:47:15;10.88;;;7.40;;
28910;SDS011;16028;42.642;23.310;2022-12-18T05:49:42;10.95;;;7.22;;
28910;SDS011;16028;42.642;23.310;2022-12-18T05:52:09;13.93;;;8.55;;
28910;SDS011;16028;42.642;23.310;2022-12-18T05:54:36;17.15;;;9.50;;
28910;SDS011;16028;42.642;23.310;2022-12-18T05:57:03;16.75;;;10.35;;
28910;SDS011;16028;42.642;23.310;2022-12-18T05:59:31;18.92;;;11.52;;
28910;SDS011;16028;42.642;23.310;2022-12-18T06:01:58;17.17;;;10.82;;
28910;SDS011;16028;42.642;23.310;2022-12-18T06:04:26;17.45;;;10.75;;
28910;SDS011;16028;42.642;23.310;2022-12-18T06:06:53;18.45;;;10.80;;
28910;SDS011;16028;42.642;23.310;2022-12-18T06:09:20;19.77;;;10.90;;
28910;SDS011;16028;42.642;23.310;2022-12-18T06:11:47;16.05;;;9.05;;
28910;SDS011;16028;42.642;23.310;2022-12-18T06:14:13;16.95;;;9.75;;
28910;SDS011;16028;42.642;23.310;2022-12-18T06:16:43;17.42;;;10.77;;
28910;SDS011;16028;42.642;23.310;2022-12-18T06:19:12;16.17;;;9.60;;
28910;SDS011;16028;42.642;23.310;2022-12-18T06:21:41;16.60;;;9.32;;
28910;SDS011;16028;42.642;23.310;2022-12-18T06:24:08;15.90;;;9.00;;
28910;SDS011;16028;42.642;23.310;2022-12-18T06:26:36;14.32;;;8.05;;
28910;SDS011;16028;42.642;23.310;2022-12-18T06:29:03;14.27;;;8.85;;
28910;SDS011;16028;42.642;23.310;2022-12-18T06:31:30;13.13;;;7.50;;
28910;SDS011;16028;42.642;23.310;2022-12-18T06:33:58;12.48;;;7.97;;
28910;SDS011;16028;42.642;23.310;2022-12-18T06:36:25;14.73;;;8.88;;
28910;SDS011;16028;42.642;23.310;2022-12-18T06:38:52;18.35;;;9.40;;
28910;SDS011;16028;42.642;23.310;2022-12-18T06:41:19;16.95;;;9.00;;
28910;SDS011;16028;42.642;23.310;2022-12-18T06:43:47;10.45;;;7.53;;
28910;SDS011;16028;42.642;23.310;2022-12-18T06:46:14;12.20;;;6.53;;
28910;SDS011;16028;42.642;23.310;2022-12-18T06:48:41;13.00;;;7.85;;
28910;SDS011;16028;42.642;23.310;2022-12-18T06:51:09;14.25;;;8.10;;
28910;SDS011;16028;42.642;23.310;2022-12-18T06:53:36;16.48;;;9.13;;
28910;SDS011;16028;42.642;23.310;2022-12-18T06:56:03;14.38;;;9.10;;
28910;SDS011;16028;42.642;23.310;2022-12-18T06:58:31;12.95;;;7.75;;
28910;SDS011;16028;42.642;23.310;2022-12-18T07:00:59;14.15;;;7.38;;
28910;SDS011;16028;42.642;23.310;2022-12-18T07:03:27;13.65;;;8.48;;
28910;SDS011;16028;42.642;23.310;2022-12-18T07:05:53;21.50;;;7.97;;
28910;SDS011;16028;42.642;23.310;2022-12-18T07:08:22;17.83;;;8.80;;
28910;SDS011;16028;42.642;23.310;2022-12-18T07:10:48;14.88;;;8.60;;
28910;SDS011;16028;42.642;23.310;2022-12-18T07:13:15;15.18;;;8.38;;
28910;SDS011;16028;42.642;23.310;2022-12-18T07:15:42;15.15;;;8.45;;
28910;SDS011;16028;42.642;23.310;2022-12-18T07:18:09;15.48;;;8.45;;
28910;SDS011;16028;42.642;23.310;2022-12-18T07:20:36;16.35;;;8.27;;
28910;SDS011;16028;42.642;23.310;2022-12-18T07:23:03;13.40;;;7.97;;
28910;SDS011;16028;42.642;23.310;2022-12-18T07:25:31;13.27;;;7.45;;
28910;SDS011;16028;42.642;23.310;2022-12-18T07:28:00;15.65;;;9.07;;
28910;SDS011;16028;42.642;23.310;2022-12-18T07:30:26;15.13;;;8.38;;
28910;SDS011;16028;42.642;23.310;2022-12-18T07:32:53;15.20;;;9.07;;
28910;SDS011;16028;42.642;23.310;2022-12-18T07:35:20;14.60;;;8.02;;
28910;SDS011;16028;42.642;23.310;2022-12-18T07:37:47;14.88;;;8.77;;
28910;SDS011;16028;42.642;23.310;2022-12-18T07:40:13;15.88;;;9.57;;
28910;SDS011;16028;42.642;23.310;2022-12-18T07:42:42;18.90;;;10.65;;
28910;SDS011;16028;42.642;23.310;2022-12-18T07:45:09;16.42;;;9.55;;
28910;SDS011;16028;42.642;23.310;2022-12-18T07:47:36;18.42;;;11.38;;
28910;SDS011;16028;42.642;23.310;2022-12-18T07:50:03;16.20;;;10.50;;
28910;SDS011;16028;42.642;23.310;2022-12-18T07:52:30;17.15;;;10.93;;
28910;SDS011;16028;42.642;23.310;2022-12-18T07:54:57;19.98;;;8.77;;
28910;SDS011;16028;42.642;23.310;2022-12-18T07:57:23;12.57;;;7.30;;
28910;SDS011;16028;42.642;23.310;2022-12-18T07:59:51;14.07;;;9.07;;
28910;SDS011;16028;42.642;23.310;2022-12-18T08:02:18;14.90;;;9.18;;
28910;SDS011;16028;42.642;23.310;2022-12-18T08:04:45;15.57;;;9.73;;
28910;SDS011;16028;42.642;23.310;2022-12-18T08:07:12;15.43;;;9.55;;
28910;SDS011;16028;42.642;23.310;2022-12-18T08:09:39;24.67;;;12.75;;
28910;SDS011;16028;42.642;23.310;2022-12-18T08:12:06;22.55;;;13.00;;
28910;SDS011;16028;42.642;23.310;2022-12-18T08:14:32;22.88;;;12.98;;
28910;SDS011;16028;42.642;23.310;2022-12-18T08:17:00;22.90;;;13.45;;
28910;SDS011;16028;42.642;23.310;2022-12-18T08:19:27;23.65;;;13.77;;
28910;SDS011;16028;42.642;23.310;2022-12-18T08:21:54;21.52;;;12.85;;
28910;SDS011;16028;42.642;23.310;2022-12-18T08:24:22;24.17;;;13.48;;
28910;SDS011;16028;42.642;23.310;2022-12-18T08:26:48;23.80;;;13.57;;
28910;SDS011;16028;42.642;23.310;2022-12-18T08:29:15;24.40;;;14.45;;
28910;SDS011;16028;42.642;23.310;2022-12-18T08:31:42;26.15;;;15.27;;
28910;SDS011;16028;42.642;23.310;2022-12-18T08:34:10;29.63;;;14.90;;
28910;SDS011;16028;42.642;23.310;2022-12-18T08:36:37;22.67;;;13.98;;
28910;SDS011;16028;42.642;23.310;2022-12-18T08:39:04;26.88;;;15.25;;
28910;SDS011;16028;42.642;23.310;2022-12-18T08:41:34;25.70;;;14.52;;
28910;SDS011;16028;42.642;23.310;2022-12-18T08:44:00;30.58;;;14.73;;
28910;SDS011;16028;42.642;23.310;2022-12-18T08:46:50;28.70;;;15.32;;
28910;SDS011;16028;42.642;23.310;2022-12-18T08:49:18;27.98;;;15.35;;
28910;SDS011;16028;42.642;23.310;2022-12-18T08:51:44;24.95;;;14.90;;
28910;SDS011;16028;42.642;23.310;2022-12-18T08:54:11;27.45;;;16.15;;
28910;SDS011;16028;42.642;23.310;2022-12-18T08:56:38;29.50;;;17.00;;
28910;SDS011;16028;42.642;23.310;2022-12-18T08:59:05;30.92;;;17.48;;
28910;SDS011;16028;42.642;23.310;2022-12-18T09:01:32;33.55;;;18.30;;
28910;SDS011;16028;42.642;23.310;2022-12-18T09:03:58;34.00;;;18.00;;
28910;SDS011;16028;42.642;23.310;2022-12-18T09:06:26;31.05;;;17.00;;
28910;SDS011;16028;42.642;23.310;2022-12-18T09:08:53;33.47;;;18.23;;
28910;SDS011;16028;42.642;23.310;2022-12-18T09:11:21;35.70;;;19.88;;
28910;SDS011;16028;42.642;23.310;2022-12-18T09:13:48;33.58;;;18.45;;
28910;SDS011;16028;42.642;23.310;2022-12-18T09:16:16;33.40;;;18.38;;
28910;SDS011;16028;42.642;23.310;2022-12-18T09:18:43;33.83;;;18.30;;
28910;SDS011;16028;42.642;23.310;2022-12-18T09:21:10;34.22;;;19.42;;
28910;SDS011;16028;42.642;23.310;2022-12-18T09:23:40;34.53;;;17.85;;
28910;SDS011;16028;42.642;23.310;2022-12-18T09:26:07;34.20;;;18.73;;
28910;SDS011;16028;42.642;23.310;2022-12-18T09:28:34;30.02;;;17.83;;
28910;SDS011;16028;42.642;23.310;2022-12-18T09:31:04;32.95;;;18.35;;
28910;SDS011;16028;42.642;23.310;2022-12-18T09:33:32;33.00;;;19.40;;
28910;SDS011;16028;42.642;23.310;2022-12-18T09:36:00;32.75;;;18.77;;
28910;SDS011;16028;42.642;23.310;2022-12-18T09:38:28;33.15;;;18.05;;
28910;SDS011;16028;42.642;23.310;2022-12-18T09:40:57;33.35;;;18.20;;
28910;SDS011;16028;42.642;23.310;2022-12-18T09:43:30;37.15;;;18.25;;
28910;SDS011;16028;42.642;23.310;2022-12-18T09:46:04;32.20;;;17.13;;
28910;SDS011;16028;42.642;23.310;2022-12-18T09:48:34;36.15;;;18.30;;
28910;SDS011;16028;42.642;23.310;2022-12-18T09:51:05;30.20;;;16.55;;
28910;SDS011;16028;42.642;23.310;2022-12-18T09:53:39;31.05;;;17.40;;
28910;SDS011;16028;42.642;23.310;2022-12-18T09:56:12;34.58;;;18.58;;
28910;SDS011;16028;42.642;23.310;2022-12-18T09:58:45;47.58;;;26.75;;
28910;SDS011;16028;42.642;23.310;2022-12-18T10:01:15;26.13;;;15.50;;
28910;SDS011;16028;42.642;23.310;2022-12-18T10:03:47;27.42;;;15.52;;
28910;SDS011;16028;42.642;23.310;2022-12-18T10:06:15;28.15;;;15.02;;
28910;SDS011;16028;42.642;23.310;2022-12-18T10:08:49;29.02;;;15.45;;
28910;SDS011;16028;42.642;23.310;2022-12-18T10:11:24;27.02;;;14.73;;
28910;SDS011;16028;42.642;23.310;2022-12-18T10:14:00;29.10;;;14.93;;
28910;SDS011;16028;42.642;23.310;2022-12-18T10:16:34;26.05;;;15.32;;
28910;SDS011;16028;42.642;23.310;2022-12-18T10:19:11;28.17;;;15.23;;
28910;SDS011;16028;42.642;23.310;2022-12-18T10:21:51;25.27;;;14.95;;
28910;SDS011;16028;42.642;23.310;2022-12-18T10:24:30;30.67;;;15.80;;
28910;SDS011;16028;42.642;23.310;2022-12-18T10:27:08;28.33;;;15.05;;
28910;SDS011;16028;42.642;23.310;2022-12-18T10:29:40;24.88;;;13.75;;
28910;SDS011;16028;42.642;23.310;2022-12-18T10:32:09;29.65;;;15.45;;
28910;SDS011;16028;42.642;23.310;2022-12-18T10:34:41;28.10;;;15.45;;
28910;SDS011;16028;42.642;23.310;2022-12-18T10:37:12;28.98;;;15.65;;
28910;SDS011;16028;42.642;23.310;2022-12-18T10:39:42;26.05;;;14.80;;
28910;SDS011;16028;42.642;23.310;2022-12-18T10:42:11;26.42;;;14.32;;
28910;SDS011;16028;42.642;23.310;2022-12-18T10:44:42;28.27;;;15.70;;
28910;SDS011;16028;42.642;23.310;2022-12-18T10:47:11;29.67;;;15.40;;
28910;SDS011;16028;42.642;23.310;2022-12-18T10:49:42;26.15;;;13.27;;
28910;SDS011;16028;42.642;23.310;2022-12-18T10:52:15;25.17;;;13.25;;
28910;SDS011;16028;42.642;23.310;2022-12-18T10:54:46;22.83;;;12.57;;
28910;SDS011;16028;42.642;23.310;2022-12-18T10:57:17;29.95;;;15.30;;
28910;SDS011;16028;42.642;23.310;2022-12-18T10:59:56;23.60;;;12.30;;
28910;SDS011;16028;42.642;23.310;2022-12-18T11:02:28;23.75;;;12.65;;
28910;SDS011;16028;42.642;23.310;2022-12-18T11:05:00;24.77;;;13.73;;
28910;SDS011;16028;42.642;23.310;2022-12-18T11:07:37;22.55;;;13.38;;
28910;SDS011;16028;42.642;23.310;2022-12-18T11:10:15;18.70;;;11.65;;
28910;SDS011;16028;42.642;23.310;2022-12-18T11:12:45;23.15;;;12.57;;
28910;SDS011;16028;42.642;23.310;2022-12-18T11:15:15;21.40;;;11.25;;
28910;SDS011;16028;42.642;23.310;2022-12-18T11:17:46;23.40;;;11.80;;
28910;SDS011;16028;42.642;23.310;2022-12-18T11:20:19;25.30;;;12.45;;
28910;SDS011;16028;42.642;23.310;2022-12-18T11:22:54;22.23;;;11.60;;
28910;SDS011;16028;42.642;23.310;2022-12-18T11:25:23;22.33;;;12.57;;
28910;SDS011;16028;42.642;23.310;2022-12-18T11:27:52;21.20;;;11.13;;
28910;SDS011;16028;42.642;23.310;2022-12-18T11:30:22;25.25;;;11.15;;
28910;SDS011;16028;42.642;23.310;2022-12-18T11:32:50;27.63;;;13.32;;
28910;SDS011;16028;42.642;23.310;2022-12-18T11:35:21;23.10;;;12.23;;
28910;SDS011;16028;42.642;23.310;2022-12-18T11:37:55;21.08;;;12.13;;
28910;SDS011;16028;42.642;23.310;2022-12-18T11:40:30;47.75;;;18.40;;
28910;SDS011;16028;42.642;23.310;2022-12-18T11:43:04;23.40;;;12.57;;
28910;SDS011;16028;42.642;23.310;2022-12-18T11:45:38;20.52;;;10.38;;
28910;SDS011;16028;42.642;23.310;2022-12-18T11:48:12;26.67;;;11.50;;
28910;SDS011;16028;42.642;23.310;2022-12-18T11:50:44;25.88;;;11.98;;
28910;SDS011;16028;42.642;23.310;2022-12-18T11:53:15;36.42;;;15.55;;
28910;SDS011;16028;42.642;23.310;2022-12-18T11:55:46;29.08;;;13.40;;
28910;SDS011;16028;42.642;23.310;2022-12-18T11:58:23;20.75;;;11.57;;
28910;SDS011;16028;42.642;23.310;2022-12-18T12:01:03;17.90;;;10.67;;
28910;SDS011;16028;42.642;23.310;2022-12-18T12:03:45;25.02;;;12.48;;
28910;SDS011;16028;42.642;23.310;2022-12-18T12:06:39;22.05;;;11.20;;
28910;SDS011;16028;42.642;23.310;2022-12-18T12:09:15;26.13;;;12.70;;
28910;SDS011;16028;42.642;23.310;2022-12-18T12:11:50;23.35;;;12.70;;
28910;SDS011;16028;42.642;23.310;2022-12-18T12:14:30;22.90;;;12.07;;
28910;SDS011;16028;42.642;23.310;2022-12-18T12:17:07;22.25;;;11.80;;
28910;SDS011;16028;42.642;23.310;2022-12-18T12:19:45;21.33;;;12.10;;
28910;SDS011;16028;42.642;23.310;2022-12-18T12:22:21;22.20;;;11.90;;
28910;SDS011;16028;42.642;23.310;2022-12-18T12:25:00;21.33;;;10.90;;
28910;SDS011;16028;42.642;23.310;2022-12-18T12:27:42;19.25;;;11.35;;
28910;SDS011;16028;42.642;23.310;2022-12-18T12:30:18;22.75;;;12.35;;
28910;SDS011;16028;42.642;23.310;2022-12-18T12:32:50;20.95;;;11.60;;
28910;SDS011;16028;42.642;23.310;2022-12-18T12:35:32;20.55;;;11.88;;
28910;SDS011;16028;42.642;23.310;2022-12-18T12:38:11;22.88;;;12.15;;
28910;SDS011;16028;42.642;23.310;2022-12-18T12:40:42;19.73;;;11.65;;
28910;SDS011;16028;42.642;23.310;2022-12-18T12:43:20;19.55;;;11.65;;
28910;SDS011;16028;42.642;23.310;2022-12-18T12:45:53;24.48;;;12.50;;
28910;SDS011;16028;42.642;23.310;2022-12-18T12:48:25;26.38;;;13.13;;
28910;SDS011;16028;42.642;23.310;2022-12-18T12:51:00;25.80;;;13.32;;
28910;SDS011;16028;42.642;23.310;2022-12-18T12:53:31;21.45;;;12.07;;
28910;SDS011;16028;42.642;23.310;2022-12-18T12:56:02;27.27;;;13.70;;
28910;SDS011;16028;42.642;23.310;2022-12-18T12:58:33;26.95;;;13.27;;
28910;SDS011;16028;42.642;23.310;2022-12-18T13:01:12;26.05;;;13.30;;
28910;SDS011;16028;42.642;23.310;2022-12-18T13:03:46;25.80;;;14.13;;
28910;SDS011;16028;42.642;23.310;2022-12-18T13:06:23;26.40;;;14.35;;
28910;SDS011;16028;42.642;23.310;2022-12-18T13:08:59;25.15;;;14.27;;
28910;SDS011;16028;42.642;23.310;2022-12-18T13:11:35;24.45;;;13.05;;
28910;SDS011;16028;42.642;23.310;2022-12-18T13:14:21;32.47;;;14.67;;
28910;SDS011;16028;42.642;23.310;2022-12-18T13:17:16;22.27;;;13.48;;
28910;SDS011;16028;42.642;23.310;2022-12-18T13:20:05;26.75;;;14.52;;
28910;SDS011;16028;42.642;23.310;2022-12-18T13:22:35;25.13;;;13.95;;
28910;SDS011;16028;42.642;23.310;2022-12-18T13:25:03;24.33;;;13.70;;
28910;SDS011;16028;42.642;23.310;2022-12-18T13:28:00;24.95;;;14.50;;
28910;SDS011;16028;42.642;23.310;2022-12-18T13:30:48;27.35;;;14.52;;
28910;SDS011;16028;42.642;23.310;2022-12-18T13:39:11;25.13;;;14.45;;
28910;SDS011;16028;42.642;23.310;2022-12-18T13:41:49;29.15;;;15.75;;
28910;SDS011;16028;42.642;23.310;2022-12-18T13:44:25;31.05;;;16.17;;
28910;SDS011;16028;42.642;23.310;2022-12-18T13:46:56;25.25;;;12.88;;
28910;SDS011;16028;42.642;23.310;2022-12-18T13:49:26;25.10;;;14.15;;
28910;SDS011;16028;42.642;23.310;2022-12-18T13:52:01;24.42;;;13.10;;
28910;SDS011;16028;42.642;23.310;2022-12-18T13:54:30;22.33;;;12.90;;
28910;SDS011;16028;42.642;23.310;2022-12-18T13:57:01;22.52;;;12.98;;
28910;SDS011;16028;42.642;23.310;2022-12-18T13:59:33;27.70;;;14.50;;
28910;SDS011;16028;42.642;23.310;2022-12-18T14:02:07;23.27;;;13.70;;
28910;SDS011;16028;42.642;23.310;2022-12-18T14:04:40;25.45;;;13.95;;
28910;SDS011;16028;42.642;23.310;2022-12-18T14:07:07;25.70;;;14.15;;
28910;SDS011;16028;42.642;23.310;2022-12-18T14:09:40;30.13;;;14.10;;
28910;SDS011;16028;42.642;23.310;2022-12-18T14:12:14;28.73;;;17.40;;
28910;SDS011;16028;42.642;23.310;2022-12-18T14:15:00;29.88;;;16.63;;
28910;SDS011;16028;42.642;23.310;2022-12-18T14:17:28;32.83;;;15.50;;
28910;SDS011;16028;42.642;23.310;2022-12-18T14:19:56;23.42;;;13.77;;
28910;SDS011;16028;42.642;23.310;2022-12-18T14:22:24;33.92;;;20.30;;
28910;SDS011;16028;42.642;23.310;2022-12-18T14:27:47;32.30;;;15.07;;
28910;SDS011;16028;42.642;23.310;2022-12-18T14:30:25;30.00;;;15.45;;
28910;SDS011;16028;42.642;23.310;2022-12-18T14:32:59;28.45;;;13.55;;
28910;SDS011;16028;42.642;23.310;2022-12-18T14:35:28;23.30;;;12.60;;
28910;SDS011;16028;42.642;23.310;2022-12-18T14:38:08;27.25;;;15.15;;
28910;SDS011;16028;42.642;23.310;2022-12-18T14:40:36;23.80;;;13.00;;
28910;SDS011;16028;42.642;23.310;2022-12-18T14:43:03;22.13;;;11.98;;
28910;SDS011;16028;42.642;23.310;2022-12-18T14:45:37;24.05;;;13.35;;
28910;SDS011;16028;42.642;23.310;2022-12-18T14:48:13;32.05;;;16.95;;
28910;SDS011;16028;42.642;23.310;2022-12-18T14:51:02;24.95;;;13.15;;